Time;durP1;ratioP1;P1;durP2;ratioP2;P2;SDS_P1;SDS_P2;PMS_P1;PMS_P2;Temp;Humidity;BMP_temperature;BMP_pressure;BME280_temperature;BME280_humidity;BME280_pressure;Samples;Min_cycle;Max_cycle;Signal;HPM_P1;HPM_P2
2023/06/08 00:00:08;;;;;;;1.93;1.30;;;19.90;99.90;;;;;;5078727;28;20695;-73
2023/06/08 00:02:35;;;;;;;3.43;1.70;;;19.90;99.90;;;;;;5081545;28;20255;-73
2023/06/08 00:05:02;;;;;;;2.67;1.40;;;19.90;99.90;;;;;;5072402;28;20570;-73
2023/06/08 00:07:30;;;;;;;1.53;1.33;;;20.00;99.90;;;;;;5081671;28;20193;-73
2023/06/08 00:09:58;;;;;;;2.80;1.47;;;20.00;99.90;;;;;;5062666;28;20187;-73
2023/06/08 00:12:24;;;;;;;2.77;1.40;;;19.90;99.90;;;;;;5063774;28;20193;-73
2023/06/08 00:14:50;;;;;;;3.77;1.67;;;19.90;99.90;;;;;;5065127;28;20654;-73
2023/06/08 00:17:16;;;;;;;2.27;1.27;;;19.90;99.90;;;;;;5081546;28;20319;-74
2023/06/08 00:19:43;;;;;;;3.17;1.40;;;20.00;99.90;;;;;;5067513;28;20272;-73
2023/06/08 00:22:12;;;;;;;1.80;1.27;;;19.90;99.90;;;;;;5044425;28;20187;-72
2023/06/08 00:24:39;;;;;;;1.40;1.20;;;19.90;99.90;;;;;;5079700;28;20851;-73
2023/06/08 00:27:06;;;;;;;1.40;1.30;;;19.90;99.90;;;;;;5082701;28;20194;-73
2023/06/08 00:29:34;;;;;;;2.07;1.30;;;19.90;99.90;;;;;;5050076;28;20201;-73
2023/06/08 00:32:00;;;;;;;2.27;1.50;;;20.00;99.90;;;;;;5101724;27;20186;-73
2023/06/08 00:34:27;;;;;;;1.93;1.27;;;19.90;99.90;;;;;;5063931;28;20189;-73
2023/06/08 00:36:55;;;;;;;1.67;1.10;;;19.90;99.90;;;;;;5047891;28;20213;-73
2023/06/08 00:39:21;;;;;;;2.17;1.23;;;19.90;99.90;;;;;;5046789;28;20186;-73
2023/06/08 00:41:47;;;;;;;1.63;1.10;;;19.80;99.90;;;;;;5083757;28;20222;-73
2023/06/08 00:44:14;;;;;;;5.33;1.17;;;19.80;99.90;;;;;;5067672;28;20229;-73
2023/06/08 00:46:40;;;;;;;1.77;1.20;;;19.80;99.90;;;;;;5082906;28;20247;-74
2023/06/08 00:49:08;;;;;;;1.43;1.33;;;19.70;99.90;;;;;;5065687;28;20220;-74
2023/06/08 00:51:40;;;;;;;1.87;1.20;;;19.80;99.90;;;;;;5067368;28;20174;-74
2023/06/08 00:54:12;;;;;;;5.33;1.20;;;19.80;99.90;;;;;;5082165;28;20186;-74
2023/06/08 00:56:40;;;;;;;2.37;1.30;;;19.80;99.90;;;;;;5100178;27;20194;-74
2023/06/08 00:59:11;;;;;;;2.27;1.30;;;19.90;99.90;;;;;;5094699;28;20194;-74
2023/06/08 01:01:38;;;;;;;1.43;1.03;;;19.90;99.90;;;;;;5067580;28;20563;-74
2023/06/08 01:04:08;;;;;;;1.97;1.17;;;19.90;99.90;;;;;;5047836;28;20685;-74
2023/06/08 01:06:39;;;;;;;2.50;0.83;;;19.90;99.90;;;;;;5047198;28;20723;-73
2023/06/08 01:09:21;;;;;;;1.20;0.80;;;19.90;99.90;;;;;;5080720;28;20224;-73
2023/06/08 01:11:59;;;;;;;1.70;1.00;;;19.90;99.90;;;;;;5096407;28;20175;-74
2023/06/08 01:15:31;;;;;;;1.13;1.00;;;19.90;99.90;;;;;;5062463;28;20652;-74
2023/06/08 01:18:09;;;;;;;3.63;1.10;;;19.90;99.90;;;;;;4970976;28;20189;-74
2023/06/08 01:21:06;;;;;;;1.40;1.00;;;19.90;99.90;;;;;;5048962;28;20198;-74
2023/06/08 01:24:12;;;;;;;5.53;1.07;;;19.90;99.90;;;;;;5081817;28;20633;-74
2023/06/08 01:26:49;;;;;;;3.00;1.10;;;19.90;99.90;;;;;;5062364;28;20252;-74
2023/06/08 01:29:18;;;;;;;1.73;0.87;;;20.00;99.90;;;;;;5062746;28;20232;-73
2023/06/08 01:31:45;;;;;;;1.73;1.20;;;20.00;99.90;;;;;;5096318;28;20186;-73
2023/06/08 01:34:13;;;;;;;1.63;0.98;;;20.00;99.90;;;;;;5080291;28;20418;-74
2023/06/08 01:37:17;;;;;;;2.90;1.10;;;19.90;99.90;;;;;;5082490;28;20178;-73
2023/06/08 01:39:51;;;;;;;1.80;1.07;;;19.90;99.90;;;;;;5078226;28;20423;-74
2023/06/08 01:42:20;;;;;;;2.80;1.10;;;20.00;99.90;;;;;;5070223;28;20202;-74
2023/06/08 01:45:10;;;;;;;4.47;1.27;;;20.00;99.90;;;;;;5095404;28;20198;-73
2023/06/08 01:48:02;;;;;;;3.57;1.30;;;19.90;99.90;;;;;;5070767;28;20197;-74
2023/06/08 01:50:31;;;;;;;2.03;1.30;;;19.90;99.90;;;;;;5094690;28;20428;-74
2023/06/08 01:52:58;;;;;;;2.10;1.48;;;20.10;99.90;;;;;;5060497;28;20405;-74
2023/06/08 01:55:27;;;;;;;1.83;1.30;;;20.00;99.90;;;;;;5046570;28;20406;-74
2023/06/08 01:57:54;;;;;;;1.23;1.02;;;20.10;99.90;;;;;;5096628;28;20182;-74
2023/06/08 02:00:21;;;;;;;2.03;1.40;;;20.10;99.90;;;;;;5064283;28;20194;-74
2023/06/08 02:02:50;;;;;;;5.85;1.40;;;20.10;99.90;;;;;;5080337;28;20416;-73
2023/06/08 02:05:16;;;;;;;4.10;1.50;;;20.10;99.90;;;;;;5080279;28;20512;-74
2023/06/08 02:07:43;;;;;;;2.25;1.40;;;20.10;99.90;;;;;;5061261;28;20461;-74
2023/06/08 02:10:11;;;;;;;2.47;1.33;;;20.20;99.90;;;;;;5082104;28;20406;-74
2023/06/08 02:12:39;;;;;;;2.38;1.30;;;20.30;99.90;;;;;;5084085;28;20441;-74
2023/06/08 02:15:06;;;;;;;2.45;1.40;;;20.30;99.90;;;;;;5065318;28;20453;-73
2023/06/08 02:17:35;;;;;;;2.70;1.50;;;20.30;99.90;;;;;;5082064;28;20423;-73
2023/06/08 02:20:06;;;;;;;3.90;1.40;;;20.30;99.90;;;;;;5084142;28;20413;-74
2023/06/08 02:22:35;;;;;;;2.45;1.40;;;20.30;99.90;;;;;;5089082;27;21252;-73
2023/06/08 02:25:03;;;;;;;1.52;1.20;;;20.40;99.90;;;;;;5081793;28;20414;-73
2023/06/08 02:27:30;;;;;;;2.70;1.50;;;20.40;99.90;;;;;;5058957;28;20412;-73
2023/06/08 02:29:58;;;;;;;3.25;1.30;;;20.30;99.90;;;;;;5050298;28;20437;-74
2023/06/08 02:32:24;;;;;;;2.40;1.37;;;20.30;99.90;;;;;;5082577;28;20910;-74
2023/06/08 02:34:55;;;;;;;2.95;1.30;;;20.30;99.90;;;;;;5064142;28;20412;-73
2023/06/08 02:37:23;;;;;;;3.58;1.45;;;20.30;99.90;;;;;;5054363;28;20817;-73
2023/06/08 02:39:50;;;;;;;2.25;1.30;;;20.30;99.90;;;;;;5061691;28;20950;-73
2023/06/08 02:42:18;;;;;;;1.70;1.30;;;20.30;99.90;;;;;;5097629;27;20406;-73
2023/06/08 02:44:45;;;;;;;2.25;1.38;;;20.40;99.90;;;;;;5098671;27;20406;-73
2023/06/08 02:47:13;;;;;;;3.00;1.40;;;20.40;99.90;;;;;;5047037;28;20402;-73
2023/06/08 02:49:40;;;;;;;3.80;1.40;;;20.40;99.90;;;;;;5081497;28;20410;-73
2023/06/08 02:52:07;;;;;;;2.30;1.30;;;20.40;99.90;;;;;;5078332;28;20439;-73
2023/06/08 02:54:34;;;;;;;2.22;1.42;;;20.40;99.90;;;;;;5074316;28;21520;-73
2023/06/08 02:57:00;;;;;;;1.67;1.20;;;20.40;99.90;;;;;;5061815;28;20938;-73
2023/06/08 02:59:29;;;;;;;2.00;1.33;;;20.50;99.90;;;;;;5091728;27;20690;-73
2023/06/08 03:01:56;;;;;;;1.70;1.20;;;20.60;99.90;;;;;;5090831;27;20840;-73
2023/06/08 03:04:25;;;;;;;2.00;1.30;;;20.60;99.90;;;;;;5068411;28;20415;-73
2023/06/08 03:06:53;;;;;;;1.90;1.33;;;20.60;99.90;;;;;;5079828;28;20421;-74
2023/06/08 03:09:24;;;;;;;2.67;1.30;;;20.60;99.90;;;;;;5079698;28;20519;-74
2023/06/08 03:11:52;;;;;;;1.77;1.20;;;20.60;99.90;;;;;;5077182;28;20925;-74
2023/06/08 03:14:18;;;;;;;3.30;1.25;;;20.70;99.90;;;;;;5084019;28;20515;-74
2023/06/08 03:16:46;;;;;;;2.63;1.20;;;20.80;99.90;;;;;;5081962;28;20421;-74
2023/06/08 03:19:13;;;;;;;3.10;1.40;;;20.90;99.90;;;;;;5050634;28;20431;-74
2023/06/08 03:21:41;;;;;;;2.33;1.17;;;20.90;99.90;;;;;;5056933;28;21803;-74
2023/06/08 03:24:09;;;;;;;2.47;1.20;;;21.00;99.90;;;;;;5093546;27;20994;-74
2023/06/08 03:26:36;;;;;;;3.03;1.15;;;21.00;99.90;;;;;;5045500;28;21180;-74
2023/06/08 03:29:02;;;;;;;1.75;1.10;;;21.10;99.90;;;;;;5074647;28;20416;-74
2023/06/08 03:31:29;;;;;;;1.98;1.13;;;21.10;99.90;;;;;;5079360;28;20723;-74
2023/06/08 03:33:56;;;;;;;2.83;1.40;;;21.20;99.90;;;;;;5074082;28;20416;-74
2023/06/08 03:36:33;;;;;;;2.80;1.50;;;21.20;99.90;;;;;;5080893;28;20409;-74
2023/06/08 03:39:02;;;;;;;1.67;1.20;;;21.30;99.90;;;;;;5078448;28;20425;-73
2023/06/08 03:41:30;;;;;;;2.38;1.38;;;21.30;99.90;;;;;;5070239;28;20419;-73
2023/06/08 03:43:56;;;;;;;6.10;1.40;;;21.40;99.90;;;;;;5065706;28;20410;-73
2023/06/08 03:46:25;;;;;;;2.72;1.30;;;21.40;99.90;;;;;;5062630;28;20417;-73
2023/06/08 03:48:51;;;;;;;3.00;1.30;;;21.50;99.90;;;;;;5082373;28;20428;-74
2023/06/08 03:51:21;;;;;;;2.17;1.20;;;21.50;99.90;;;;;;5071320;28;20981;-73
2023/06/08 03:53:49;;;;;;;2.83;1.15;;;21.70;99.90;;;;;;5078170;28;20813;-73
2023/06/08 03:56:17;;;;;;;4.78;1.42;;;21.70;99.90;;;;;;5076393;28;20400;-73
2023/06/08 03:58:44;;;;;;;2.75;1.30;;;21.80;99.90;;;;;;5059480;28;21007;-73
2023/06/08 04:01:12;;;;;;;3.30;1.20;;;21.90;99.90;;;;;;5100165;27;20425;-73
2023/06/08 04:03:41;;;;;;;5.80;1.40;;;21.90;99.90;;;;;;5055708;28;20540;-72
2023/06/08 04:06:08;;;;;;;3.92;1.40;;;22.00;99.90;;;;;;5081069;28;20927;-73
2023/06/08 04:08:41;;;;;;;2.93;1.30;;;22.10;99.90;;;;;;5051399;28;20439;-72
2023/06/08 04:11:08;;;;;;;3.40;1.40;;;22.10;99.90;;;;;;5079074;28;20420;-74
2023/06/08 04:13:39;;;;;;;3.15;1.40;;;22.10;99.90;;;;;;5064470;28;20394;-74
2023/06/08 04:16:13;;;;;;;2.33;1.20;;;22.20;99.90;;;;;;5081132;28;20406;-74
2023/06/08 04:18:40;;;;;;;3.55;1.30;;;22.20;99.90;;;;;;5039217;28;20838;-74
2023/06/08 04:21:07;;;;;;;2.97;1.33;;;22.30;99.90;;;;;;5059821;28;20894;-74
2023/06/08 04:23:37;;;;;;;1.90;1.30;;;22.30;99.90;;;;;;5055673;28;20415;-74
2023/06/08 04:26:07;;;;;;;1.80;1.40;;;22.40;99.90;;;;;;5087864;28;21049;-74
2023/06/08 04:28:35;;;;;;;2.30;1.33;;;22.40;99.90;;;;;;5082935;28;20411;-74
2023/06/08 04:31:04;;;;;;;3.47;1.40;;;22.50;99.90;;;;;;5060532;28;20969;-74
2023/06/08 04:33:31;;;;;;;2.20;1.30;;;22.50;99.90;;;;;;5060666;28;20408;-74
2023/06/08 04:35:58;;;;;;;2.88;1.63;;;22.60;99.90;;;;;;5042994;28;20477;-73
2023/06/08 04:38:27;;;;;;;3.80;1.50;;;22.70;99.90;;;;;;5076118;28;20406;-73
2023/06/08 04:40:55;;;;;;;2.90;1.50;;;22.70;99.90;;;;;;5062713;28;20451;-73
2023/06/08 04:43:25;;;;;;;2.27;1.40;;;22.70;99.90;;;;;;5067360;28;20513;-73
2023/06/08 04:46:00;;;;;;;2.47;1.70;;;22.70;99.90;;;;;;5078003;28;20431;-73
2023/06/08 04:48:28;;;;;;;3.80;1.42;;;22.80;99.90;;;;;;5051920;28;20458;-75
2023/06/08 04:50:59;;;;;;;2.30;1.30;;;22.80;99.90;;;;;;5079066;28;20398;-75
2023/06/08 04:53:26;;;;;;;5.17;1.70;;;22.80;99.90;;;;;;5072572;28;20417;-75
2023/06/08 04:55:59;;;;;;;3.25;1.60;;;22.80;99.90;;;;;;5045601;28;20411;-75
2023/06/08 04:58:29;;;;;;;2.90;1.30;;;22.90;99.90;;;;;;5072683;28;20405;-75
2023/06/08 05:00:57;;;;;;;2.88;1.60;;;22.90;99.90;;;;;;5056638;28;20972;-75
2023/06/08 05:03:27;;;;;;;2.83;1.70;;;23.00;99.90;;;;;;5069032;28;20408;-75
2023/06/08 05:05:54;;;;;;;2.67;1.70;;;23.00;99.90;;;;;;5077074;28;20410;-75
2023/06/08 05:08:21;;;;;;;3.72;1.80;;;23.00;99.90;;;;;;5060235;28;21151;-75
2023/06/08 05:10:47;;;;;;;2.40;1.67;;;23.10;99.90;;;;;;5071747;28;20410;-74
2023/06/08 05:13:13;;;;;;;3.78;1.70;;;23.20;99.90;;;;;;5080792;28;20409;-75
2023/06/08 05:15:40;;;;;;;2.90;1.50;;;23.20;99.90;;;;;;5062722;28;21017;-75
2023/06/08 05:18:06;;;;;;;2.58;1.40;;;23.20;99.90;;;;;;5065133;28;20830;-74
2023/06/08 05:20:32;;;;;;;3.60;1.60;;;23.20;99.90;;;;;;5087251;28;20504;-75
2023/06/08 05:22:58;;;;;;;7.68;1.52;;;23.30;99.90;;;;;;5081939;28;20438;-74
2023/06/08 05:25:33;;;;;;;5.60;1.60;;;23.20;99.90;;;;;;5074895;28;20822;-74
2023/06/08 05:27:59;;;;;;;4.07;1.70;;;23.30;99.90;;;;;;5068696;28;20460;-74
2023/06/08 05:30:25;;;;;;;3.60;1.60;;;23.30;99.90;;;;;;5075231;28;20463;-74
2023/06/08 05:32:52;;;;;;;2.45;1.60;;;23.30;99.90;;;;;;5035756;28;20410;-75
2023/06/08 05:35:18;;;;;;;2.83;1.60;;;23.40;99.90;;;;;;5062691;28;20858;-75
2023/06/08 05:37:44;;;;;;;3.30;1.70;;;23.40;99.90;;;;;;5062070;28;20442;-75
2023/06/08 05:40:11;;;;;;;2.35;1.50;;;23.40;99.90;;;;;;5093271;28;20747;-75
2023/06/08 05:42:38;;;;;;;2.55;1.60;;;23.50;99.90;;;;;;5070621;28;20422;-75
2023/06/08 05:45:05;;;;;;;2.72;1.60;;;23.50;99.90;;;;;;5072085;28;20416;-75
2023/06/08 05:47:31;;;;;;;4.13;1.70;;;23.50;99.90;;;;;;5075392;28;20441;-75
2023/06/08 05:49:57;;;;;;;2.90;1.50;;;23.60;99.90;;;;;;5077704;28;20507;-75
2023/06/08 05:52:23;;;;;;;3.40;1.70;;;23.60;99.90;;;;;;5062471;28;20450;-75
2023/06/08 05:54:50;;;;;;;2.83;1.60;;;23.60;99.90;;;;;;5075526;28;20627;-75
2023/06/08 05:57:17;;;;;;;2.70;1.60;;;23.70;99.90;;;;;;5077285;28;20414;-74
2023/06/08 05:59:43;;;;;;;3.03;1.60;;;23.70;99.90;;;;;;5074899;28;20692;-74
2023/06/08 06:02:09;;;;;;;3.40;1.52;;;23.80;99.90;;;;;;5065769;28;20936;-74
2023/06/08 06:04:36;;;;;;;4.18;1.55;;;23.80;99.90;;;;;;5098865;27;20441;-74
2023/06/08 06:07:02;;;;;;;2.00;1.50;;;23.80;99.90;;;;;;5070928;28;20827;-75
2023/06/08 06:09:29;;;;;;;6.78;1.63;;;23.90;99.90;;;;;;5081639;28;21135;-75
2023/06/08 06:11:55;;;;;;;2.20;1.50;;;23.90;99.90;;;;;;5098976;28;20896;-73
2023/06/08 06:14:21;;;;;;;3.42;1.70;;;24.00;99.90;;;;;;5100175;27;20614;-73
2023/06/08 06:16:48;;;;;;;3.20;1.70;;;24.00;99.90;;;;;;5081039;28;20532;-73
2023/06/08 06:19:14;;;;;;;4.50;1.40;;;24.00;99.90;;;;;;5062599;28;20831;-75
2023/06/08 06:21:40;;;;;;;2.17;1.58;;;24.10;99.90;;;;;;5075489;28;20402;-74
2023/06/08 06:24:06;;;;;;;5.40;1.60;;;24.10;99.90;;;;;;5074799;28;20476;-74
2023/06/08 06:26:33;;;;;;;2.70;1.70;;;24.10;99.90;;;;;;5055779;28;20426;-74
2023/06/08 06:28:59;;;;;;;3.83;1.90;;;24.20;99.90;;;;;;5074784;28;20421;-74
2023/06/08 06:31:26;;;;;;;3.00;1.63;;;24.20;99.90;;;;;;5076464;28;20402;-74
2023/06/08 06:33:52;;;;;;;2.80;1.80;;;24.30;99.90;;;;;;5074966;28;20400;-75
2023/06/08 06:36:18;;;;;;;4.32;1.70;;;24.30;99.90;;;;;;5076948;28;20490;-75
2023/06/08 06:38:45;;;;;;;3.78;1.70;;;24.30;99.90;;;;;;5055725;28;20428;-75
2023/06/08 06:41:11;;;;;;;3.45;1.60;;;24.40;99.90;;;;;;5078865;28;20406;-76
2023/06/08 06:43:37;;;;;;;5.35;1.73;;;24.40;99.90;;;;;;5060414;28;20772;-74
2023/06/08 06:46:03;;;;;;;5.50;1.60;;;24.50;99.90;;;;;;5062525;28;20638;-74
2023/06/08 06:48:30;;;;;;;2.78;1.48;;;24.50;99.90;;;;;;5056492;28;20406;-73
2023/06/08 06:50:56;;;;;;;3.53;1.90;;;24.50;99.90;;;;;;5059818;28;20405;-74
2023/06/08 06:53:22;;;;;;;3.22;1.70;;;24.60;99.90;;;;;;5074033;28;20414;-72
2023/06/08 06:55:49;;;;;;;8.00;1.70;;;24.70;99.90;;;;;;5079700;28;20409;-71
2023/06/08 06:58:15;;;;;;;4.65;1.60;;;24.80;99.90;;;;;;5075006;28;20446;-72
2023/06/08 07:00:44;;;;;;;4.80;1.73;;;24.90;99.90;;;;;;5068768;28;20406;-72
2023/06/08 07:03:11;;;;;;;4.45;1.75;;;25.00;99.90;;;;;;5080260;28;20410;-73
2023/06/08 07:05:37;;;;;;;4.15;1.80;;;25.20;99.90;;;;;;5080409;28;20902;-72
2023/06/08 07:08:04;;;;;;;7.28;1.80;;;25.30;99.90;;;;;;5065024;28;20406;-72
2023/06/08 07:10:31;;;;;;;4.85;1.90;;;25.30;99.90;;;;;;5094091;27;20409;-72
2023/06/08 07:12:58;;;;;;;5.63;1.85;;;25.50;99.90;;;;;;5064844;28;20829;-72
2023/06/08 07:15:25;;;;;;;5.88;1.50;;;25.40;99.90;;;;;;5063820;28;20406;-72
2023/06/08 07:17:51;;;;;;;8.27;1.83;;;25.40;99.90;;;;;;5063387;28;21123;-73
2023/06/08 07:20:17;;;;;;;4.53;1.77;;;25.50;99.90;;;;;;5080100;28;20552;-72
2023/06/08 07:22:44;;;;;;;2.47;1.60;;;25.50;99.90;;;;;;5044065;28;20398;-72
2023/06/08 07:25:10;;;;;;;5.75;1.60;;;25.50;99.90;;;;;;5064087;28;20852;-73
2023/06/08 07:27:36;;;;;;;2.90;1.60;;;25.60;99.90;;;;;;5058683;28;20413;-72
2023/06/08 07:30:03;;;;;;;2.55;1.40;;;25.60;99.90;;;;;;5065417;28;20566;-72
2023/06/08 07:32:30;;;;;;;5.00;1.60;;;25.70;99.90;;;;;;5093426;28;20486;-72
2023/06/08 07:34:56;;;;;;;4.28;1.60;;;25.90;99.90;;;;;;5062441;28;20490;-72
2023/06/08 07:37:22;;;;;;;5.95;1.80;;;26.00;99.90;;;;;;5069903;28;20907;-72
2023/06/08 07:39:49;;;;;;;4.38;1.50;;;26.20;99.90;;;;;;5076535;28;20412;-72
2023/06/08 07:42:15;;;;;;;5.13;1.90;;;26.20;99.90;;;;;;5075832;28;20521;-73
2023/06/08 07:44:41;;;;;;;2.65;1.50;;;26.30;99.90;;;;;;5061247;28;20783;-72
2023/06/08 07:47:08;;;;;;;4.85;1.80;;;26.40;99.90;;;;;;5078849;28;20733;-72
2023/06/08 07:49:34;;;;;;;5.90;1.60;;;26.40;99.90;;;;;;5076728;28;20411;-73
2023/06/08 07:52:00;;;;;;;2.88;1.60;;;26.60;99.90;;;;;;5080050;28;20492;-72
2023/06/08 07:54:27;;;;;;;2.75;1.40;;;26.80;99.90;;;;;;5053588;28;20400;-72
2023/06/08 07:56:53;;;;;;;1.73;1.30;;;26.80;99.90;;;;;;5101311;27;20417;-73
2023/06/08 07:59:19;;;;;;;3.15;1.40;;;26.90;99.90;;;;;;5075313;28;20410;-73
2023/06/08 08:01:46;;;;;;;3.50;1.60;;;26.90;99.90;;;;;;5063332;28;20403;-73
2023/06/08 08:04:12;;;;;;;4.03;1.48;;;27.00;99.90;;;;;;5065256;28;20448;-73
2023/06/08 08:06:38;;;;;;;2.40;1.27;;;27.00;99.90;;;;;;5075691;28;20834;-73
2023/06/08 08:09:05;;;;;;;2.75;1.55;;;27.00;99.90;;;;;;5077642;28;20422;-73
2023/06/08 08:11:31;;;;;;;2.60;1.48;;;27.00;99.90;;;;;;5074748;28;20442;-73
2023/06/08 08:13:57;;;;;;;3.83;1.40;;;27.00;99.90;;;;;;5078614;28;20538;-73
2023/06/08 08:16:24;;;;;;;6.07;1.65;;;27.00;99.90;;;;;;5076955;28;20437;-73
2023/06/08 08:18:50;;;;;;;2.40;1.70;;;27.10;99.90;;;;;;5096910;27;20915;-73
2023/06/08 08:21:16;;;;;;;2.27;1.47;;;27.10;99.90;;;;;;5067906;28;20449;-73
2023/06/08 08:23:42;;;;;;;2.93;1.50;;;27.10;99.90;;;;;;5056135;28;20438;-73
2023/06/08 08:26:09;;;;;;;3.80;1.53;;;27.10;99.90;;;;;;5080733;28;20414;-73
2023/06/08 08:28:41;;;;;;;3.33;1.55;;;27.10;99.90;;;;;;5075656;28;20826;-73
2023/06/08 08:31:07;;;;;;;2.42;1.60;;;27.10;99.90;;;;;;5057824;28;20416;-73
2023/06/08 08:33:33;;;;;;;3.90;1.75;;;27.10;99.90;;;;;;5057912;28;21070;-73
2023/06/08 08:35:59;;;;;;;4.90;1.67;;;27.00;99.90;;;;;;5065818;28;20393;-73
2023/06/08 08:38:26;;;;;;;1.92;1.50;;;27.10;99.90;;;;;;5046389;28;20414;-73
2023/06/08 08:41:01;;;;;;;3.40;1.50;;;27.00;99.90;;;;;;5056812;28;20425;-72
2023/06/08 08:43:46;;;;;;;2.93;1.50;;;27.00;99.90;;;;;;5074103;28;20502;-72
2023/06/08 08:46:13;;;;;;;7.55;1.50;;;27.00;99.90;;;;;;5054998;28;20932;-72
2023/06/08 08:48:42;;;;;;;3.13;1.42;;;27.00;99.90;;;;;;5084691;28;20495;-72
2023/06/08 08:51:20;;;;;;;3.30;1.40;;;26.80;99.90;;;;;;5065016;28;20456;-72
2023/06/08 08:53:51;;;;;;;2.33;1.33;;;26.80;99.90;;;;;;5077038;28;20412;-72
2023/06/08 08:56:22;;;;;;;2.53;1.60;;;26.70;99.90;;;;;;5075342;28;20424;-72
2023/06/08 08:58:53;;;;;;;3.70;1.50;;;26.70;99.90;;;;;;5077277;28;20862;-72
2023/06/08 09:01:25;;;;;;;2.92;1.30;;;26.60;99.90;;;;;;5070865;28;20417;-72
2023/06/08 09:03:52;;;;;;;2.70;1.50;;;26.50;99.90;;;;;;5090210;28;20413;-72
2023/06/08 09:06:18;;;;;;;2.92;1.52;;;26.50;99.90;;;;;;5060535;28;20506;-72
2023/06/08 09:08:45;;;;;;;3.15;1.67;;;26.50;99.90;;;;;;5076695;28;20414;-72
2023/06/08 09:11:11;;;;;;;3.10;1.48;;;26.40;99.90;;;;;;5078410;28;20414;-72
2023/06/08 09:13:38;;;;;;;2.38;1.55;;;26.30;99.90;;;;;;5057030;28;20744;-72
2023/06/08 09:16:14;;;;;;;3.53;1.50;;;26.30;99.90;;;;;;5074530;28;20402;-72
2023/06/08 09:18:42;;;;;;;3.42;1.60;;;26.20;99.90;;;;;;5078198;28;20405;-72
2023/06/08 09:21:27;;;;;;;3.70;1.50;;;26.20;99.90;;;;;;5082787;28;20406;-72
2023/06/08 09:24:16;;;;;;;4.78;1.42;;;26.10;99.90;;;;;;5059666;28;20952;-72
2023/06/08 09:26:51;;;;;;;1.77;1.30;;;26.20;99.90;;;;;;5101951;27;20959;-72
2023/06/08 09:29:44;;;;;;;3.65;1.60;;;26.20;99.90;;;;;;5083653;28;20523;-72
2023/06/08 09:32:13;;;;;;;2.20;1.70;;;26.20;99.90;;;;;;5079037;28;20972;-72
2023/06/08 09:34:58;;;;;;;2.53;1.60;;;26.20;99.90;;;;;;5063525;28;20401;-72
2023/06/08 09:37:36;;;;;;;2.47;1.50;;;26.30;99.90;;;;;;5075981;28;20455;-72
2023/06/08 09:40:04;;;;;;;3.97;1.55;;;26.30;99.90;;;;;;5094861;27;20918;-72
2023/06/08 09:42:50;;;;;;;3.10;1.70;;;26.40;99.90;;;;;;5079236;28;20569;-72
2023/06/08 09:45:18;;;;;;;3.33;1.60;;;26.40;99.90;;;;;;5070489;28;20414;-72
2023/06/08 09:47:44;;;;;;;3.25;1.70;;;26.40;99.90;;;;;;5063535;28;20417;-72
2023/06/08 09:50:12;;;;;;;2.60;1.73;;;26.40;99.90;;;;;;5068418;28;21159;-72
2023/06/08 09:52:39;;;;;;;3.17;1.92;;;26.40;99.90;;;;;;5077191;28;20405;-72
2023/06/08 09:55:06;;;;;;;3.20;1.92;;;26.50;99.90;;;;;;5049202;28;20406;-71
2023/06/08 09:57:37;;;;;;;4.13;1.95;;;26.50;99.90;;;;;;5066578;28;21140;-71
2023/06/08 10:00:17;;;;;;;3.83;2.10;;;26.50;99.90;;;;;;5067856;28;20808;-72
2023/06/08 10:03:28;;;;;;;3.03;2.00;;;26.50;99.90;;;;;;5077830;28;21411;-73
2023/06/08 10:05:57;;;;;;;3.78;2.10;;;26.50;99.90;;;;;;4961253;28;20422;-72
2023/06/08 10:08:27;;;;;;;4.20;2.20;;;26.50;99.90;;;;;;4947196;28;20444;-72
2023/06/08 10:10:56;;;;;;;6.30;2.30;;;26.50;99.90;;;;;;5018303;28;20775;-72
2023/06/08 10:13:23;;;;;;;4.75;2.25;;;26.40;99.90;;;;;;5080848;28;20410;-72
2023/06/08 10:15:51;;;;;;;4.35;2.38;;;26.40;99.90;;;;;;5062456;28;20402;-72
2023/06/08 10:18:19;;;;;;;4.82;2.40;;;26.50;99.90;;;;;;5092890;27;20413;-72
2023/06/08 10:20:46;;;;;;;7.40;2.50;;;26.50;99.90;;;;;;5079723;28;20409;-72
2023/06/08 10:23:13;;;;;;;4.45;2.65;;;26.60;99.90;;;;;;5095264;27;20532;-72
2023/06/08 10:25:41;;;;;;;4.50;2.80;;;26.60;99.90;;;;;;5051141;28;20832;-72
2023/06/08 10:28:11;;;;;;;5.25;2.75;;;26.70;99.90;;;;;;5061453;28;20414;-72
2023/06/08 10:30:40;;;;;;;5.85;2.65;;;26.80;99.90;;;;;;5097416;27;20420;-73
2023/06/08 10:33:25;;;;;;;5.53;2.80;;;26.80;99.90;;;;;;5060920;28;22150;-73
2023/06/08 10:36:09;;;;;;;4.20;2.53;;;26.90;99.90;;;;;;5079781;28;20481;-73
2023/06/08 10:38:57;;;;;;;3.85;2.50;;;26.90;99.90;;;;;;5084563;28;20423;-73
2023/06/08 10:41:52;;;;;;;4.22;2.53;;;26.90;99.90;;;;;;5062005;28;20416;-73
2023/06/08 10:44:36;;;;;;;9.10;3.10;;;26.90;99.90;;;;;;5080253;28;20902;-73
2023/06/08 10:47:08;;;;;;;5.00;2.80;;;26.90;99.90;;;;;;5049722;28;20409;-73
2023/06/08 10:49:38;;;;;;;3.73;2.53;;;26.90;99.90;;;;;;5077028;28;20970;-73
2023/06/08 10:52:10;;;;;;;3.20;2.57;;;26.90;99.90;;;;;;5080160;28;20434;-73
2023/06/08 10:54:57;;;;;;;4.05;2.90;;;26.90;99.90;;;;;;5061814;28;21019;-73
2023/06/08 10:57:49;;;;;;;5.00;2.73;;;26.90;99.90;;;;;;5079697;28;20448;-73
2023/06/08 11:00:25;;;;;;;6.47;3.13;;;26.80;99.90;;;;;;5079939;28;20411;-73
2023/06/08 11:03:00;;;;;;;5.28;3.15;;;26.80;99.90;;;;;;5080729;28;20416;-73
2023/06/08 11:05:34;;;;;;;4.75;2.85;;;26.80;99.90;;;;;;5081366;28;20437;-73
2023/06/08 11:08:02;;;;;;;7.27;3.10;;;26.80;99.90;;;;;;5079809;28;20414;-73
2023/06/08 11:10:33;;;;;;;4.07;2.80;;;26.70;99.90;;;;;;5075522;28;20846;-72
2023/06/08 11:13:07;;;;;;;5.43;2.77;;;26.70;99.90;;;;;;5061224;28;20922;-73
2023/06/08 11:15:38;;;;;;;4.82;3.10;;;26.60;99.90;;;;;;5062077;28;20470;-73
2023/06/08 11:18:07;;;;;;;6.40;3.17;;;26.60;99.90;;;;;;5075988;28;20492;-73
2023/06/08 11:20:40;;;;;;;9.10;3.60;;;26.60;99.90;;;;;;5060746;28;20410;-72
2023/06/08 11:23:12;;;;;;;7.30;3.40;;;26.50;99.90;;;;;;5078241;28;20497;-73
2023/06/08 11:25:40;;;;;;;6.07;3.40;;;26.50;99.90;;;;;;5091236;27;20471;-73
2023/06/08 11:28:08;;;;;;;5.80;3.50;;;26.40;99.90;;;;;;5055612;28;20782;-73
2023/06/08 11:30:35;;;;;;;4.10;3.13;;;26.40;99.90;;;;;;5072535;28;20458;-73
2023/06/08 11:33:08;;;;;;;6.70;3.53;;;26.40;99.90;;;;;;5061947;28;20452;-73
2023/06/08 11:35:36;;;;;;;5.38;3.38;;;26.40;99.90;;;;;;5073732;28;20422;-72
2023/06/08 11:38:03;;;;;;;5.70;3.45;;;26.40;99.90;;;;;;5063874;28;20416;-73
2023/06/08 11:40:31;;;;;;;14.13;4.10;;;26.40;99.90;;;;;;5055077;28;20968;-73
2023/06/08 11:42:58;;;;;;;25.75;4.25;;;26.30;99.90;;;;;;5090485;28;20927;-73
2023/06/08 11:45:25;;;;;;;19.77;4.13;;;26.30;99.90;;;;;;5075249;28;20421;-73
2023/06/08 11:47:57;;;;;;;6.23;3.50;;;26.30;99.90;;;;;;5080392;28;20484;-73
2023/06/08 11:50:23;;;;;;;15.18;3.90;;;26.40;99.90;;;;;;5091081;28;20436;-73
2023/06/08 11:52:50;;;;;;;8.20;3.53;;;26.30;99.90;;;;;;5074415;28;20461;-73
2023/06/08 11:55:24;;;;;;;10.13;3.80;;;26.30;99.90;;;;;;5059821;28;20410;-73
2023/06/08 11:58:02;;;;;;;5.20;3.40;;;26.30;99.90;;;;;;5056080;28;20402;-73
2023/06/08 12:00:34;;;;;;;5.07;3.47;;;26.30;99.90;;;;;;5081200;28;20409;-73
2023/06/08 12:03:01;;;;;;;5.93;3.40;;;26.20;99.90;;;;;;5076475;28;20504;-73
2023/06/08 12:05:34;;;;;;;4.75;3.30;;;26.20;99.90;;;;;;5061718;28;20438;-73
2023/06/08 12:08:09;;;;;;;5.20;3.20;;;26.20;99.90;;;;;;5045303;28;20452;-74
2023/06/08 12:10:41;;;;;;;5.27;3.30;;;26.20;99.90;;;;;;5075480;28;21067;-73
2023/06/08 12:13:10;;;;;;;5.18;3.20;;;26.20;99.90;;;;;;5081820;28;20421;-73
2023/06/08 12:15:40;;;;;;;5.75;3.10;;;26.30;99.90;;;;;;5079169;28;20414;-73
2023/06/08 12:18:06;;;;;;;5.53;3.20;;;26.20;99.90;;;;;;5057356;28;20449;-73
2023/06/08 12:20:33;;;;;;;5.38;3.25;;;26.20;99.90;;;;;;5072783;28;20411;-73
2023/06/08 12:23:01;;;;;;;5.27;3.20;;;26.20;99.90;;;;;;5080075;28;20421;-73
2023/06/08 12:25:27;;;;;;;5.67;3.10;;;26.20;99.90;;;;;;5052199;28;20414;-73
2023/06/08 12:27:54;;;;;;;5.50;3.33;;;26.20;99.90;;;;;;5064131;28;20486;-73
2023/06/08 12:30:23;;;;;;;6.97;3.10;;;26.30;99.90;;;;;;5081104;28;21182;-72
2023/06/08 12:32:51;;;;;;;4.95;3.38;;;26.30;99.90;;;;;;5076756;28;20415;-73
2023/06/08 12:35:17;;;;;;;6.60;3.00;;;26.40;99.90;;;;;;5079846;28;20946;-73
2023/06/08 12:37:48;;;;;;;11.85;3.40;;;26.50;99.90;;;;;;5074751;28;20411;-73
2023/06/08 12:40:19;;;;;;;5.47;3.25;;;26.60;99.90;;;;;;5059129;28;20406;-73
2023/06/08 12:42:49;;;;;;;4.70;2.60;;;26.70;99.90;;;;;;5076081;28;20998;-73
2023/06/08 12:45:20;;;;;;;4.55;2.75;;;26.80;99.90;;;;;;5077660;28;20866;-74
2023/06/08 12:47:47;;;;;;;5.78;2.90;;;26.80;99.90;;;;;;5059942;28;20448;-73
2023/06/08 12:50:19;;;;;;;4.40;2.80;;;26.90;99.90;;;;;;5060563;28;20445;-72
2023/06/08 12:52:46;;;;;;;5.70;2.83;;;27.00;99.90;;;;;;5079507;28;20413;-73
2023/06/08 12:55:12;;;;;;;5.68;3.13;;;27.00;99.90;;;;;;5080358;28;20409;-73
2023/06/08 12:57:39;;;;;;;3.60;2.72;;;27.10;99.90;;;;;;5065516;28;20428;-73